createdAt,value
2019-03-15T00:02:13.763Z,8.07
2019-03-15T00:04:43.340Z,8.04
2019-03-15T00:07:12.839Z,8.05
2019-03-15T00:09:42.374Z,8.10
2019-03-15T00:12:11.896Z,8.12
2019-03-15T00:14:41.485Z,8.07
2019-03-15T00:27:32.652Z,8.03
2019-03-15T00:30:02.167Z,8.05
2019-03-15T00:32:31.686Z,8.06
2019-03-15T00:35:01.278Z,8.06
2019-03-15T00:37:30.909Z,8.04
2019-03-15T00:40:00.472Z,8.05
2019-03-15T00:42:30.008Z,8.08
2019-03-15T00:44:59.539Z,8.10
2019-03-15T00:47:29.081Z,8.04
2019-03-15T00:49:58.623Z,8.05
2019-03-15T00:52:28.198Z,8.07
2019-03-15T00:54:57.715Z,8.00
2019-03-15T00:57:27.246Z,8.02
2019-03-15T00:59:56.801Z,8.03
2019-03-15T01:02:26.325Z,7.99
2019-03-15T01:04:55.851Z,8.00
2019-03-15T01:07:25.398Z,7.99
2019-03-15T01:09:55.080Z,7.97
2019-03-15T01:12:24.583Z,7.92
2019-03-15T01:14:54.183Z,7.97
2019-03-15T01:17:23.730Z,8.02
2019-03-15T01:19:53.259Z,8.01
2019-03-15T01:22:22.824Z,8.01
2019-03-15T01:24:52.350Z,8.01
2019-03-15T01:27:21.885Z,8.00
2019-03-15T01:29:51.430Z,8.01
2019-03-15T01:32:21.022Z,7.99
2019-03-15T01:34:50.614Z,7.98
2019-03-15T01:37:20.141Z,8.00
2019-03-15T01:39:50.420Z,7.98
2019-03-15T01:42:19.964Z,7.88
2019-03-15T01:44:49.867Z,7.91
2019-03-15T01:47:19.396Z,7.92
2019-03-15T01:49:48.957Z,7.95
2019-03-15T01:52:18.498Z,7.94
2019-03-15T01:54:48.012Z,7.96
2019-03-15T01:57:17.580Z,7.93
2019-03-15T01:59:47.116Z,7.89
2019-03-15T02:02:16.708Z,7.87
2019-03-15T02:04:46.265Z,7.92
2019-03-15T02:07:15.801Z,7.91
2019-03-15T02:09:45.331Z,7.88
2019-03-15T02:12:14.874Z,7.85
2019-03-15T02:14:44.402Z,7.84
2019-03-15T02:17:14.034Z,7.86
2019-03-15T02:19:43.602Z,7.83
2019-03-15T02:22:13.096Z,7.85
2019-03-15T02:24:42.626Z,7.83
2019-03-15T02:27:12.411Z,7.88
2019-03-15T02:29:41.949Z,7.86
2019-03-15T02:32:12.890Z,7.89
2019-03-15T02:34:42.512Z,7.85
2019-03-15T02:37:12.051Z,7.84
2019-03-15T02:39:41.578Z,7.86
2019-03-15T02:42:11.102Z,7.80
2019-03-15T02:44:40.659Z,7.84
2019-03-15T02:47:10.189Z,7.88
2019-03-15T02:49:39.809Z,7.89
2019-03-15T02:52:09.374Z,7.88
2019-03-15T02:54:38.955Z,7.88
2019-03-15T02:57:08.767Z,7.92
2019-03-15T02:59:38.734Z,7.88
2019-03-15T03:02:08.306Z,7.87
2019-03-15T03:04:37.836Z,7.91
2019-03-15T03:07:07.383Z,7.92
2019-03-15T03:09:36.908Z,7.94
2019-03-15T03:12:06.476Z,7.96
2019-03-15T03:14:36.027Z,7.95
2019-03-15T03:17:05.557Z,7.97
2019-03-15T03:19:35.130Z,7.93
2019-03-15T03:22:04.658Z,7.96
2019-03-15T03:24:34.189Z,7.95
2019-03-15T03:27:03.721Z,7.97
2019-03-15T03:29:33.280Z,7.91
2019-03-15T03:32:02.829Z,7.89
2019-03-15T03:34:32.338Z,7.90
2019-03-15T03:37:01.875Z,7.84
2019-03-15T03:39:31.675Z,7.88
2019-03-15T03:42:01.202Z,7.91
2019-03-15T03:44:30.756Z,7.88
2019-03-15T03:47:00.323Z,7.86
2019-03-15T03:49:29.858Z,7.85
2019-03-15T03:51:59.371Z,7.83
2019-03-15T03:54:29.041Z,7.86
2019-03-15T03:56:58.525Z,7.86
2019-03-15T03:59:28.394Z,7.78
2019-03-15T04:01:57.961Z,7.75
2019-03-15T04:04:27.758Z,7.77
2019-03-15T04:06:57.566Z,7.79
2019-03-15T04:09:27.101Z,7.80
2019-03-15T04:11:56.667Z,7.80
2019-03-15T04:14:26.230Z,7.79
2019-03-15T04:16:55.760Z,7.76
2019-03-15T04:19:25.338Z,7.71
2019-03-15T04:21:54.882Z,7.69
2019-03-15T04:24:24.420Z,7.71
2019-03-15T04:26:53.940Z,7.73
2019-03-15T04:29:23.483Z,7.69
2019-03-15T04:31:53.038Z,7.71
2019-03-15T04:34:22.563Z,7.70
2019-03-15T04:36:52.096Z,7.74
2019-03-15T04:39:21.625Z,7.73
2019-03-15T04:41:51.238Z,7.70
2019-03-15T04:44:21.015Z,7.70
2019-03-15T04:46:50.572Z,7.73
2019-03-15T04:49:20.101Z,7.73
2019-03-15T04:51:49.701Z,7.74
2019-03-15T04:54:19.256Z,7.78
2019-03-15T04:56:48.799Z,7.76
2019-03-15T04:59:18.496Z,7.79
2019-03-15T05:01:48.075Z,7.76
2019-03-15T05:04:17.610Z,7.74
2019-03-15T05:06:47.148Z,7.79
2019-03-15T05:09:16.666Z,7.78
2019-03-15T05:11:46.207Z,7.81
2019-03-15T05:14:15.727Z,7.79
2019-03-15T05:16:45.272Z,7.72
2019-03-15T05:19:14.805Z,7.76
2019-03-15T05:21:44.339Z,7.78
2019-03-15T05:24:13.870Z,7.78
2019-03-15T05:26:43.406Z,7.80
2019-03-15T05:29:12.934Z,7.82
2019-03-15T05:31:42.482Z,7.83
2019-03-15T05:34:11.996Z,7.82
2019-03-15T05:36:41.535Z,7.75
2019-03-15T05:39:11.110Z,7.81
2019-03-15T05:41:40.637Z,7.75
2019-03-15T05:44:10.169Z,7.79
2019-03-15T05:46:39.720Z,7.82
2019-03-15T05:49:09.268Z,7.77
2019-03-15T05:51:38.814Z,7.81
2019-03-15T05:54:08.351Z,7.84
2019-03-15T05:56:37.896Z,7.83
2019-03-15T05:59:07.432Z,7.83
2019-03-15T06:01:36.992Z,7.81
2019-03-15T06:04:06.570Z,7.78
2019-03-15T06:06:36.103Z,7.80
2019-03-15T06:09:07.180Z,7.76
2019-03-15T06:11:36.712Z,7.72
2019-03-15T06:14:06.273Z,7.69
2019-03-15T06:16:35.981Z,7.69
2019-03-15T06:19:05.504Z,7.70
2019-03-15T06:21:35.044Z,7.72
2019-03-15T06:24:04.587Z,7.74
2019-03-15T06:26:34.129Z,7.71
2019-03-15T06:29:03.663Z,7.68
2019-03-15T06:31:33.207Z,7.70
2019-03-15T06:34:02.734Z,7.69
2019-03-15T06:36:32.267Z,7.69
2019-03-15T06:39:01.810Z,7.70
2019-03-15T06:41:31.368Z,7.71
2019-03-15T06:44:00.910Z,7.72
2019-03-15T06:46:30.594Z,7.75
2019-03-15T06:49:00.170Z,7.71
2019-03-15T06:51:31.352Z,7.73
2019-03-15T06:54:10.945Z,7.72
2019-03-15T06:56:32.197Z,7.71
2019-03-15T06:59:01.743Z,7.74
2019-03-15T07:01:31.338Z,7.79
2019-03-15T07:04:00.904Z,7.81
2019-03-15T07:06:30.437Z,7.80
2019-03-15T07:09:00.032Z,7.79
2019-03-15T07:11:29.671Z,7.75
2019-03-15T07:13:59.209Z,7.76
2019-03-15T07:16:28.752Z,7.78
2019-03-15T07:18:58.272Z,7.80
2019-03-15T07:21:27.814Z,7.71
2019-03-15T07:23:57.931Z,7.72
2019-03-15T07:26:27.603Z,7.80
2019-03-15T07:28:57.162Z,7.81
2019-03-15T07:31:26.699Z,7.86
2019-03-15T07:33:56.245Z,7.82
2019-03-15T07:36:25.886Z,7.76
2019-03-15T07:38:55.529Z,7.82
2019-03-15T07:41:25.565Z,7.82
2019-03-15T07:43:55.169Z,7.77
2019-03-15T07:46:24.701Z,7.82
2019-03-15T07:48:54.245Z,7.85
2019-03-15T07:51:23.764Z,7.90
2019-03-15T07:53:53.315Z,7.90
2019-03-15T07:56:22.837Z,7.90
2019-03-15T07:58:52.360Z,7.95
2019-03-15T08:01:21.903Z,7.94
2019-03-15T08:03:51.454Z,7.94
2019-03-15T08:06:33.707Z,7.98
2019-03-15T08:08:52.216Z,7.96
2019-03-15T08:11:21.762Z,7.97
2019-03-15T08:13:51.302Z,8.02
2019-03-15T08:16:20.905Z,7.99
2019-03-15T08:18:50.440Z,8.00
2019-03-15T08:21:22.635Z,8.07
2019-03-15T08:23:51.520Z,8.14
2019-03-15T08:26:21.052Z,8.08
2019-03-15T08:28:50.588Z,8.10
2019-03-15T08:31:23.208Z,8.16
2019-03-15T08:33:51.399Z,8.20
2019-03-15T08:36:20.914Z,8.25
2019-03-15T08:38:50.479Z,8.24
2019-03-15T08:41:20.021Z,8.24
2019-03-15T08:43:49.543Z,8.32
2019-03-15T08:46:19.155Z,8.33
2019-03-15T08:48:48.647Z,8.26
2019-03-15T08:51:18.177Z,8.29
2019-03-15T08:53:47.705Z,8.22
2019-03-15T08:56:17.272Z,8.26
2019-03-15T08:58:46.830Z,8.25
2019-03-15T09:01:16.589Z,8.34
2019-03-15T09:03:46.126Z,8.36
2019-03-15T09:06:15.652Z,8.45
2019-03-15T09:08:45.206Z,8.49
2019-03-15T09:11:14.740Z,8.55
2019-03-15T09:13:44.269Z,8.62
2019-03-15T09:16:13.912Z,8.72
2019-03-15T09:18:43.439Z,8.84
2019-03-15T09:21:12.996Z,8.93
2019-03-15T09:23:42.663Z,8.97
2019-03-15T09:26:12.175Z,9.02
2019-03-15T09:28:41.713Z,9.08
2019-03-15T09:31:11.259Z,9.16
2019-03-15T09:33:40.758Z,9.21
2019-03-15T09:36:10.313Z,9.27
2019-03-15T09:38:41.006Z,9.34
2019-03-15T09:41:10.537Z,9.37
2019-03-15T09:43:40.099Z,9.41
2019-03-15T09:46:09.622Z,9.46
2019-03-15T09:48:39.169Z,9.52
2019-03-15T09:51:08.696Z,9.58
2019-03-15T09:53:38.241Z,9.62
2019-03-15T09:56:07.770Z,9.67
2019-03-15T09:58:37.293Z,9.70
2019-03-15T10:01:06.953Z,9.75
2019-03-15T10:03:37.148Z,9.74
2019-03-15T10:06:15.400Z,9.72
2019-03-15T10:08:37.934Z,9.77
2019-03-15T10:11:07.462Z,9.76
2019-03-15T10:13:36.998Z,9.77
2019-03-15T10:16:06.554Z,9.76
2019-03-15T10:18:36.077Z,9.80
2019-03-15T10:21:09.045Z,9.86
2019-03-15T10:23:36.879Z,9.89
2019-03-15T10:26:06.398Z,9.92
2019-03-15T10:28:35.944Z,9.97
2019-03-15T10:31:05.568Z,10.01
2019-03-15T10:33:35.096Z,10.03
2019-03-15T10:36:04.878Z,10.07
2019-03-15T10:38:34.467Z,10.14
2019-03-15T10:41:04.009Z,10.17
2019-03-15T10:43:33.521Z,10.25
2019-03-15T10:46:05.976Z,10.26
2019-03-15T10:48:34.340Z,10.30
2019-03-15T10:51:03.882Z,10.37
2019-03-15T10:53:33.422Z,10.42
2019-03-15T10:56:02.978Z,10.48
2019-03-15T10:58:32.578Z,10.54
2019-03-15T11:01:02.207Z,10.60
2019-03-15T11:03:31.756Z,10.62
2019-03-15T11:06:01.306Z,10.71
2019-03-15T11:08:30.829Z,10.74
2019-03-15T11:11:00.364Z,10.76
2019-03-15T11:13:29.924Z,10.80
2019-03-15T11:15:59.464Z,10.89
2019-03-15T11:18:29.001Z,10.94
2019-03-15T11:20:58.564Z,11.01
2019-03-15T11:23:28.110Z,11.04
2019-03-15T11:25:57.656Z,11.12
2019-03-15T11:28:27.203Z,11.16
2019-03-15T11:30:56.754Z,11.26
2019-03-15T11:33:27.224Z,11.33
2019-03-15T11:35:56.751Z,11.38
2019-03-15T11:38:26.307Z,11.41
2019-03-15T11:40:55.851Z,11.47
2019-03-15T11:43:25.400Z,11.47
2019-03-15T11:45:57.054Z,11.49
2019-03-15T11:48:26.620Z,11.53
2019-03-15T11:50:56.175Z,11.61
2019-03-15T11:53:25.713Z,11.63
2019-03-15T11:55:55.258Z,11.68
2019-03-15T11:58:24.829Z,11.79
2019-03-15T12:00:54.357Z,11.82
2019-03-15T12:03:23.893Z,11.91
2019-03-15T12:05:53.481Z,11.94
2019-03-15T12:08:23.012Z,11.91
2019-03-15T12:10:52.567Z,12.01
2019-03-15T12:13:22.142Z,12.02
2019-03-15T12:15:51.694Z,11.93
2019-03-15T12:18:21.243Z,11.93
2019-03-15T12:20:50.774Z,12.03
2019-03-15T12:23:20.360Z,12.03
2019-03-15T12:25:50.009Z,12.01
2019-03-15T12:28:19.557Z,12.06
2019-03-15T12:30:49.343Z,12.07
2019-03-15T12:33:18.868Z,12.06
2019-03-15T12:35:48.432Z,12.03
2019-03-15T12:38:17.973Z,12.02
2019-03-15T12:40:47.549Z,12.00
2019-03-15T12:43:17.097Z,12.05
2019-03-15T12:45:46.651Z,12.00
2019-03-15T12:48:16.216Z,12.03
2019-03-15T12:50:45.755Z,12.03
2019-03-15T12:53:15.285Z,12.05
2019-03-15T12:55:44.838Z,12.05
2019-03-15T12:58:14.381Z,12.05
2019-03-15T13:00:43.912Z,11.95
2019-03-15T13:03:13.446Z,12.00
2019-03-15T13:05:42.998Z,12.04
2019-03-15T13:08:12.540Z,12.13
2019-03-15T13:10:42.089Z,12.16
2019-03-15T13:13:11.655Z,12.19
2019-03-15T13:15:41.227Z,12.25
2019-03-15T13:18:10.746Z,12.30
2019-03-15T13:20:40.506Z,12.26
2019-03-15T13:23:10.047Z,12.33
2019-03-15T13:25:39.621Z,12.32
2019-03-15T13:28:09.192Z,12.36
2019-03-15T13:30:38.736Z,12.42
2019-03-15T13:33:19.488Z,12.48
2019-03-15T13:35:40.499Z,12.52
2019-03-15T13:38:10.033Z,12.59
2019-03-15T13:40:39.832Z,12.66
2019-03-15T13:43:09.386Z,12.67
2019-03-15T13:45:39.021Z,12.71
2019-03-15T13:48:08.569Z,12.73
2019-03-15T13:50:38.094Z,12.79
2019-03-15T13:53:07.630Z,12.84
2019-03-15T13:55:37.173Z,12.87
2019-03-15T13:58:06.712Z,12.88
2019-03-15T14:00:36.269Z,12.92
2019-03-15T14:03:05.816Z,13.00
2019-03-15T14:05:35.608Z,12.99
2019-03-15T14:08:11.614Z,13.00
2019-03-15T14:10:48.807Z,12.96
2019-03-15T14:13:07.759Z,12.87
2019-03-15T14:15:37.284Z,12.83
2019-03-15T14:18:06.818Z,12.75
2019-03-15T14:20:36.385Z,12.68
2019-03-15T14:23:05.947Z,12.67
2019-03-15T14:25:35.517Z,12.68
2019-03-15T14:28:05.073Z,12.73
2019-03-15T14:30:34.683Z,12.73
2019-03-15T14:33:04.209Z,12.75
2019-03-15T14:35:33.768Z,12.74
2019-03-15T14:38:03.640Z,12.69
2019-03-15T14:40:33.122Z,12.67
2019-03-15T14:43:02.694Z,12.69
2019-03-15T14:45:32.262Z,12.64
2019-03-15T14:48:01.776Z,12.64
2019-03-15T14:50:31.378Z,12.62
2019-03-15T14:53:00.927Z,12.65
2019-03-15T14:55:30.465Z,12.60
2019-03-15T14:58:00.633Z,12.59
2019-03-15T15:00:30.233Z,12.69
2019-03-15T15:02:59.761Z,12.64
2019-03-15T15:05:29.312Z,12.68
2019-03-15T15:07:59.113Z,12.68
2019-03-15T15:10:28.684Z,12.68
2019-03-15T15:12:58.215Z,12.61
2019-03-15T15:15:27.753Z,12.56
2019-03-15T15:17:57.294Z,12.57
2019-03-15T15:20:26.858Z,12.55
2019-03-15T15:22:56.394Z,12.57
2019-03-15T15:25:25.977Z,12.55
2019-03-15T15:28:04.484Z,12.57
2019-03-15T15:30:26.780Z,12.62
2019-03-15T15:32:57.248Z,12.56
2019-03-15T15:35:26.773Z,12.51
2019-03-15T15:37:56.306Z,12.56
2019-03-15T15:40:25.874Z,12.52
2019-03-15T15:42:55.413Z,12.51
2019-03-15T15:45:24.954Z,12.49
2019-03-15T15:47:54.504Z,12.44
2019-03-15T15:50:24.057Z,12.48
2019-03-15T15:52:53.589Z,12.50
2019-03-15T15:55:23.131Z,12.49
2019-03-15T15:57:52.704Z,12.41
2019-03-15T16:00:22.273Z,12.39
2019-03-15T16:02:51.785Z,12.30
2019-03-15T16:05:21.832Z,12.35
2019-03-15T16:07:51.361Z,12.35
2019-03-15T16:10:20.935Z,12.29
2019-03-15T16:12:50.478Z,12.27
2019-03-15T16:15:20.678Z,12.23
2019-03-15T16:17:50.541Z,12.16
2019-03-15T16:20:20.071Z,12.05
2019-03-15T16:22:49.716Z,12.09
2019-03-15T16:25:21.033Z,12.15
2019-03-15T16:27:50.576Z,12.11
2019-03-15T16:30:22.903Z,12.13
2019-03-15T16:32:52.446Z,12.12
2019-03-15T16:35:22.006Z,12.05
2019-03-15T16:37:51.553Z,12.04
2019-03-15T16:40:24.111Z,11.97
2019-03-15T16:42:53.654Z,11.91
2019-03-15T16:45:32.071Z,11.87
2019-03-15T16:48:01.605Z,11.94
2019-03-15T16:50:31.171Z,11.84
2019-03-15T16:53:00.679Z,11.81
2019-03-15T16:55:30.250Z,11.73
2019-03-15T16:57:59.807Z,11.60
2019-03-15T17:00:29.351Z,11.56
2019-03-15T17:02:58.883Z,11.55
2019-03-15T17:05:28.437Z,11.47
2019-03-15T17:07:58.017Z,11.36
2019-03-15T17:10:27.561Z,11.36
2019-03-15T17:12:57.091Z,11.17
2019-03-15T17:15:29.947Z,11.02
2019-03-15T17:17:59.527Z,10.90
2019-03-15T17:20:29.058Z,10.90
2019-03-15T17:22:58.846Z,10.82
2019-03-15T17:25:28.389Z,10.83
2019-03-15T17:27:57.933Z,10.72
2019-03-15T17:30:27.626Z,10.61
2019-03-15T17:32:57.166Z,10.55
2019-03-15T17:35:26.700Z,10.42
2019-03-15T17:37:56.233Z,10.42
2019-03-15T17:40:25.777Z,10.29
2019-03-15T17:42:55.300Z,10.30
2019-03-15T17:45:24.857Z,10.39
2019-03-15T17:47:54.396Z,10.46
2019-03-15T17:50:28.212Z,10.50
2019-03-15T17:52:57.774Z,10.42
2019-03-15T17:55:28.205Z,10.39
2019-03-15T17:57:57.739Z,10.28
2019-03-15T18:00:39.241Z,10.25
2019-03-15T18:03:20.736Z,10.23
2019-03-15T18:05:40.754Z,10.19
2019-03-15T18:08:10.308Z,10.15
2019-03-15T18:10:39.840Z,10.09
2019-03-15T18:13:09.542Z,10.08
2019-03-15T18:15:39.133Z,10.08
2019-03-15T18:18:08.685Z,10.11
2019-03-15T18:20:38.227Z,10.01
2019-03-15T18:23:07.747Z,9.98
2019-03-15T18:25:37.306Z,9.98
2019-03-15T18:28:06.906Z,10.01
2019-03-15T18:30:36.442Z,10.05
2019-03-15T18:33:05.994Z,10.03
2019-03-15T18:35:35.526Z,10.08
2019-03-15T18:38:05.182Z,10.05
2019-03-15T18:40:34.727Z,9.99
2019-03-15T18:43:04.270Z,10.06
2019-03-15T18:45:34.726Z,10.05
2019-03-15T18:48:04.341Z,9.97
2019-03-15T18:50:33.878Z,9.97
2019-03-15T18:53:03.442Z,9.96
2019-03-15T18:55:32.970Z,10.03
2019-03-15T18:58:02.544Z,10.05
2019-03-15T19:00:32.072Z,9.99
2019-03-15T19:03:01.609Z,10.00
2019-03-15T19:05:32.153Z,10.06
2019-03-15T19:08:01.687Z,9.99
2019-03-15T19:10:31.212Z,9.97
2019-03-15T19:13:00.764Z,10.03
2019-03-15T19:15:30.293Z,10.07
2019-03-15T19:17:59.848Z,10.04
2019-03-15T19:20:29.421Z,10.01
2019-03-15T19:22:58.985Z,10.06
2019-03-15T19:25:28.541Z,10.08
2019-03-15T19:27:58.119Z,10.09
2019-03-15T19:30:27.671Z,10.07
2019-03-15T19:32:58.188Z,9.98
2019-03-15T19:35:27.737Z,9.98
2019-03-15T19:37:57.281Z,10.05
2019-03-15T19:40:26.807Z,10.01
2019-03-15T19:42:56.336Z,10.05
2019-03-15T19:45:25.889Z,10.08
2019-03-15T19:47:55.679Z,10.01
2019-03-15T19:50:25.249Z,10.02
2019-03-15T19:52:54.772Z,9.98
2019-03-15T19:55:24.298Z,10.01
2019-03-15T19:57:53.835Z,10.02
2019-03-15T20:00:23.447Z,9.99
2019-03-15T20:02:53.009Z,9.96
2019-03-15T20:05:24.507Z,9.87
2019-03-15T20:07:54.030Z,9.88
2019-03-15T20:10:23.565Z,9.88
2019-03-15T20:12:53.131Z,9.92
2019-03-15T20:15:22.655Z,9.86
2019-03-15T20:17:52.206Z,9.80
2019-03-15T20:20:21.814Z,9.75
2019-03-15T20:22:51.347Z,9.72
2019-03-15T20:25:20.912Z,9.77
2019-03-15T20:27:50.523Z,9.73
2019-03-15T20:30:26.604Z,9.75
2019-03-15T20:32:55.315Z,9.70
2019-03-15T20:35:24.858Z,9.71
2019-03-15T20:37:54.429Z,9.67
2019-03-15T20:40:23.940Z,9.71
2019-03-15T20:42:53.487Z,9.71
2019-03-15T20:45:30.372Z,9.66
2019-03-15T20:47:59.905Z,9.66
2019-03-15T20:50:29.486Z,9.69
2019-03-15T20:53:08.542Z,9.70
2019-03-15T20:55:30.344Z,9.64
2019-03-15T20:57:59.962Z,9.57
2019-03-15T21:00:36.055Z,9.64
2019-03-15T21:03:00.748Z,9.67
2019-03-15T21:05:30.516Z,9.65
2019-03-15T21:08:00.048Z,9.66
2019-03-15T21:10:29.574Z,9.66
2019-03-15T21:12:59.121Z,9.68
2019-03-15T21:15:28.915Z,9.59
2019-03-15T21:17:58.451Z,9.58
2019-03-15T21:20:27.968Z,9.61
2019-03-15T21:22:57.559Z,9.60
2019-03-15T21:25:27.099Z,9.59
2019-03-15T21:27:56.645Z,9.57
2019-03-15T21:30:27.681Z,9.54
2019-03-15T21:32:57.501Z,9.58
2019-03-15T21:35:27.044Z,9.53
2019-03-15T21:37:56.834Z,9.56
2019-03-15T21:40:26.403Z,9.49
2019-03-15T21:42:56.194Z,9.49
2019-03-15T21:45:26.651Z,9.52
2019-03-15T21:47:56.172Z,9.53
2019-03-15T21:50:25.717Z,9.52
2019-03-15T21:52:55.273Z,9.45
2019-03-15T21:55:24.791Z,9.44
2019-03-15T21:57:54.568Z,9.48
2019-03-15T22:00:26.734Z,9.46
2019-03-15T22:02:56.302Z,9.48
2019-03-15T22:05:26.790Z,9.50
2019-03-15T22:07:56.580Z,9.50
2019-03-15T22:10:29.114Z,9.40
2019-03-15T22:12:58.663Z,9.38
2019-03-15T22:15:28.214Z,9.40
2019-03-15T22:17:57.858Z,9.44
2019-03-15T22:20:27.388Z,9.41
2019-03-15T22:22:56.935Z,9.35
2019-03-15T22:25:26.493Z,9.37
2019-03-15T22:27:56.015Z,9.36
2019-03-15T22:30:25.557Z,9.34
2019-03-15T22:32:55.082Z,9.34
2019-03-15T22:35:24.869Z,9.37
2019-03-15T22:37:54.703Z,9.35
2019-03-15T22:40:25.877Z,9.40
2019-03-15T22:42:55.404Z,9.38
2019-03-15T22:45:24.946Z,9.37
2019-03-15T22:47:54.490Z,9.37
2019-03-15T22:50:24.955Z,9.33
2019-03-15T22:52:54.505Z,9.32
2019-03-15T22:55:24.057Z,9.27
2019-03-15T22:57:59.835Z,9.35
2019-03-15T23:00:30.896Z,9.35
2019-03-15T23:03:00.738Z,9.37
2019-03-15T23:05:30.439Z,9.31
2019-03-15T23:08:00.020Z,9.28
2019-03-15T23:10:29.609Z,9.31
2019-03-15T23:12:59.176Z,9.28
2019-03-15T23:15:28.746Z,9.30
2019-03-15T23:17:58.265Z,9.29
2019-03-15T23:20:27.826Z,9.34
2019-03-15T23:22:57.401Z,9.29
2019-03-15T23:25:26.951Z,9.31
2019-03-15T23:27:56.496Z,9.23
2019-03-15T23:30:28.450Z,9.29
2019-03-15T23:32:58.005Z,9.25
2019-03-15T23:35:27.565Z,9.30
2019-03-15T23:37:57.117Z,9.33
2019-03-15T23:40:26.646Z,9.33
2019-03-15T23:42:56.230Z,9.31
2019-03-15T23:45:25.855Z,9.33
2019-03-15T23:47:55.442Z,9.32
2019-03-15T23:50:25.037Z,9.36
2019-03-15T23:52:54.585Z,9.33
2019-03-15T23:55:24.123Z,9.33
2019-03-15T23:57:53.911Z,9.29
